Time;durP1;ratioP1;P1;durP2;ratioP2;P2;SDS_P1;SDS_P2;PMS_P1;PMS_P2;Temp;Humidity;BMP_temperature;BMP_pressure;BME280_temperature;BME280_humidity;BME280_pressure;Samples;Min_cycle;Max_cycle;Signal;HPM_P1;HPM_P2
2024/01/28 14:47:36;;;;;;;9.90;2.93;;;;;;;5.90;100.00;102146.75;5108505;27;20613;-79
2024/01/28 14:50:01;;;;;;;7.97;2.50;;;;;;;5.94;100.00;102118.09;5084679;28;20945;-79
2024/01/28 14:52:29;;;;;;;5.77;2.30;;;;;;;5.68;100.00;102088.41;5082066;28;20217;-78
2024/01/28 14:54:56;;;;;;;7.63;2.77;;;;;;;6.23;100.00;102208.72;5075313;28;20315;-78
2024/01/28 14:57:24;;;;;;;8.47;2.63;;;;;;;8.10;100.00;102515.50;5079820;28;20492;-78
2024/01/28 14:59:49;;;;;;;5.50;2.63;;;;;;;7.13;100.00;102381.91;5083011;28;20951;-78
2024/01/28 15:02:15;;;;;;;11.47;2.67;;;;;;;6.24;100.00;102245.03;5083437;28;20440;-79
2024/01/28 15:04:43;;;;;;;6.10;2.67;;;;;;;6.75;100.00;102324.00;5089338;28;20193;-78
2024/01/28 15:07:08;;;;;;;6.87;2.20;;;;;;;7.16;100.00;102392.31;5083035;28;20265;-78
2024/01/28 15:09:38;;;;;;;11.13;2.50;;;;;;;6.61;100.00;102319.06;5086106;28;20470;-78
2024/01/28 15:12:04;;;;;;;6.30;2.63;;;;;;;6.75;100.00;102340.00;5086054;28;20190;-79
2024/01/28 15:14:30;;;;;;;8.27;2.70;;;;;;;6.28;100.00;102270.44;5083174;28;20432;-78
2024/01/28 15:16:57;;;;;;;10.00;2.80;;;;;;;6.14;100.00;102287.63;5083150;28;20551;-78
2024/01/28 15:19:25;;;;;;;10.00;3.53;;;;;;;6.67;100.00;102375.34;5081261;28;20183;-78
2024/01/28 15:21:51;;;;;;;7.23;2.70;;;;;;;4.71;100.00;102078.16;5079418;28;20851;-78
2024/01/28 15:24:16;;;;;;;6.20;2.57;;;;;;;5.82;100.00;102253.13;5076487;28;20444;-77
2024/01/28 15:26:42;;;;;;;7.50;2.80;;;;;;;5.34;100.00;102197.81;5096905;28;20185;-77
2024/01/28 15:29:14;;;;;;;9.60;2.90;;;;;;;5.88;100.00;102281.88;5083786;28;20213;-77
2024/01/28 15:31:40;;;;;;;7.77;2.53;;;;;;;4.81;100.00;102132.25;5098192;28;20214;-77
2024/01/28 15:34:08;;;;;;;5.90;2.57;;;;;;;6.75;100.00;102412.84;5097528;28;20475;-78
2024/01/28 15:36:39;;;;;;;8.83;3.10;;;;;;;7.38;100.00;102553.22;5083222;28;20224;-78
2024/01/28 15:39:10;;;;;;;9.43;3.93;;;;;;;5.50;100.00;102261.22;5079471;28;20485;-78
2024/01/28 15:41:37;;;;;;;8.00;3.47;;;;;;;5.06;100.00;102146.94;5099715;28;20870;-78
2024/01/28 15:44:08;;;;;;;9.37;3.77;;;;;;;6.69;100.00;102441.88;5081473;28;20451;-78
2024/01/28 15:46:37;;;;;;;6.83;3.17;;;;;;;5.31;100.00;102193.59;5096151;28;20471;-77
2024/01/28 15:49:07;;;;;;;7.27;3.07;;;;;;;5.78;100.00;102302.28;5076411;28;20504;-78
2024/01/28 15:51:37;;;;;;;7.90;2.80;;;;;;;5.74;100.00;102309.69;5084787;28;20440;-77
2024/01/28 15:54:06;;;;;;;6.27;2.77;;;;;;;5.77;100.00;102306.75;5081159;28;20448;-77
2024/01/28 15:56:36;;;;;;;8.90;2.67;;;;;;;6.11;100.00;102355.34;5085778;28;20466;-78
2024/01/28 15:59:02;;;;;;;6.90;2.60;;;;;;;6.49;100.00;102447.13;5068847;28;21002;-77
2024/01/28 16:01:30;;;;;;;9.60;2.63;;;;;;;4.56;100.00;102138.75;5072904;28;20480;-77
2024/01/28 16:03:56;;;;;;;10.67;3.47;;;;;;;5.28;100.00;102280.81;5062994;28;20183;-77
2024/01/28 16:06:24;;;;;;;8.83;3.20;;;;;;;5.67;100.00;102303.22;5066622;28;20479;-78
2024/01/28 16:09:02;;;;;;;8.83;3.40;;;;;;;5.12;100.00;102255.50;5071115;28;20298;-78
2024/01/28 16:11:28;;;;;;;9.77;3.45;;;;;;;4.96;100.00;102236.47;5065902;28;20387;-78
2024/01/28 16:13:56;;;;;;;9.20;3.33;;;;;;;4.36;100.00;102105.88;5073672;28;20605;-77
2024/01/28 16:16:27;;;;;;;7.57;3.20;;;;;;;4.08;100.00;102048.91;5084194;28;20207;-77
2024/01/28 16:18:54;;;;;;;9.13;3.00;;;;;;;5.83;100.00;102358.66;5072019;28;20397;-78
2024/01/28 16:21:45;;;;;;;7.80;2.83;;;;;;;5.11;100.00;102229.84;5068306;28;20198;-78
2024/01/28 16:24:10;;;;;;;7.18;3.10;;;;;;;4.84;100.00;102184.31;5064519;28;20418;-78
2024/01/28 16:26:48;;;;;;;8.00;2.70;;;;;;;5.10;100.00;102249.44;5070127;28;20198;-77
2024/01/28 16:29:18;;;;;;;6.60;2.60;;;;;;;3.38;100.00;102000.63;5067409;28;20577;-77
2024/01/28 16:31:51;;;;;;;6.77;2.30;;;;;;;4.87;100.00;102208.00;5067670;28;20432;-77
2024/01/28 16:34:17;;;;;;;8.27;3.10;;;;;;;5.46;100.00;102297.03;5064067;28;20399;-78
2024/01/28 16:36:48;;;;;;;10.27;2.90;;;;;;;5.41;100.00;102295.63;5065869;28;20206;-78
2024/01/28 16:39:40;;;;;;;6.50;2.97;;;;;;;3.86;100.00;102060.44;5065758;28;20297;-78
2024/01/28 16:42:06;;;;;;;7.60;3.00;;;;;;;4.89;100.00;102222.84;5060579;28;20412;-78
2024/01/28 16:44:34;;;;;;;7.60;3.20;;;;;;;5.15;100.00;102283.63;5070772;28;20202;-78
2024/01/28 16:47:04;;;;;;;7.20;3.30;;;;;;;4.75;100.00;102215.16;5069080;28;20186;-78
2024/01/28 16:50:00;;;;;;;12.87;3.73;;;;;;;3.56;100.00;102016.84;5084260;28;20450;-78
2024/01/28 16:52:31;;;;;;;7.10;2.93;;;;;;;4.17;100.00;102109.22;5059195;28;20420;-77
2024/01/28 16:55:06;;;;;;;8.87;2.93;;;;;;;4.98;100.00;102247.81;5079960;28;20446;-78
2024/01/28 16:57:35;;;;;;;8.37;2.90;;;;;;;5.01;100.00;102244.06;5067334;28;20477;-78
2024/01/28 17:00:04;;;;;;;7.07;2.90;;;;;;;4.92;100.00;102203.13;5064671;28;20444;-78
2024/01/28 17:02:47;;;;;;;6.60;2.57;;;;;;;3.32;100.00;101950.69;5063671;28;21129;-78
2024/01/28 17:05:15;;;;;;;7.63;3.30;;;;;;;2.87;100.00;101915.50;5068129;28;20465;-78
2024/01/28 17:07:48;;;;;;;9.37;3.10;;;;;;;4.21;100.00;102123.91;5065980;28;20200;-78
2024/01/28 17:10:13;;;;;;;7.47;3.35;;;;;;;4.02;100.00;102131.69;5065822;28;20442;-77
2024/01/28 17:12:44;;;;;;;7.10;3.53;;;;;;;4.21;100.00;102139.84;5081213;28;20232;-78
2024/01/28 17:15:45;;;;;;;6.17;3.40;;;;;;;5.27;100.00;102365.09;5083720;28;20270;-78
2024/01/28 17:18:12;;;;;;;8.80;3.85;;;;;;;5.25;100.00;102320.97;5067602;28;20443;-78
2024/01/28 17:20:40;;;;;;;6.93;3.40;;;;;;;4.70;100.00;102273.19;5068676;28;20191;-78
2024/01/28 17:23:41;;;;;;;;;;;;;;;;;;;;;
2024/01/28 17:26:17;;;;;;;7.45;3.15;;;;;;;4.51;100.00;102183.47;5047924;28;20412;-78
2024/01/28 17:29:08;;;;;;;10.93;4.07;;;;;;;4.35;100.00;102148.53;5065251;28;20571;-78
2024/01/28 17:31:36;;;;;;;6.53;2.80;;;;;;;3.97;100.00;102126.78;5081813;28;20424;-77
2024/01/28 17:34:08;;;;;;;6.70;3.13;;;;;;;5.30;100.00;102348.88;5083180;28;20178;-77
2024/01/28 17:36:35;;;;;;;6.50;2.90;;;;;;;4.67;100.00;102234.41;5084117;28;20511;-77
2024/01/28 17:39:04;;;;;;;6.80;3.10;;;;;;;4.41;100.00;102236.53;5080478;28;20877;-77
2024/01/28 17:41:33;;;;;;;7.80;3.50;;;;;;;4.99;100.00;102337.25;5067462;28;20441;-78
2024/01/28 17:44:04;;;;;;;8.13;3.30;;;;;;;2.87;100.00;101982.56;5071752;28;20437;-78
2024/01/28 17:46:30;;;;;;;8.70;3.97;;;;;;;4.60;100.00;102235.88;5070579;28;20437;-76
2024/01/28 17:49:08;;;;;;;9.40;3.17;;;;;;;3.01;100.00;102000.06;5070650;28;20453;-77
2024/01/28 17:51:36;;;;;;;8.25;3.90;;;;;;;3.30;100.00;102039.31;5068717;28;20402;-77
2024/01/28 17:54:14;;;;;;;8.30;3.53;;;;;;;2.41;100.00;101922.59;5064248;28;20266;-75
2024/01/28 17:56:43;;;;;;;7.87;3.43;;;;;;;5.35;100.00;102351.13;5064185;28;20506;-76
2024/01/28 17:59:15;;;;;;;11.30;3.30;;;;;;;3.90;100.00;102114.09;5083382;28;20468;-76
2024/01/28 18:01:49;;;;;;;6.50;2.93;;;;;;;3.69;100.00;102075.06;5078074;28;20447;-77
2024/01/28 18:04:22;;;;;;;8.97;3.47;;;;;;;4.30;100.00;102199.34;5068604;28;20437;-76
2024/01/28 18:07:00;;;;;;;8.97;3.40;;;;;;;3.24;100.00;102045.09;5065757;28;20440;-76
2024/01/28 18:09:32;;;;;;;10.13;3.67;;;;;;;2.56;100.00;101954.16;5081014;28;20928;-77
2024/01/28 18:12:05;;;;;;;11.27;4.00;;;;;;;3.39;100.00;102092.47;5065996;28;20599;-77
2024/01/28 18:14:44;;;;;;;9.80;4.00;;;;;;;3.71;100.00;102142.13;5070767;28;20819;-76
2024/01/28 18:17:12;;;;;;;8.33;3.60;;;;;;;2.68;100.00;101961.13;5061360;28;20460;-76
2024/01/28 18:19:41;;;;;;;12.13;3.87;;;;;;;3.63;100.00;102123.31;5066369;28;20976;-76
2024/01/28 18:22:11;;;;;;;8.33;3.40;;;;;;;4.21;100.00;102266.50;5082571;28;20478;-76
2024/01/28 18:24:44;;;;;;;7.47;3.50;;;;;;;3.12;100.00;102129.09;5065119;28;21903;-76
2024/01/28 18:27:17;;;;;;;9.27;3.67;;;;;;;3.56;100.00;102197.25;5066014;28;20432;-75
2024/01/28 18:29:48;;;;;;;10.17;4.40;;;;;;;3.28;100.00;102120.81;5065369;28;20486;-75
2024/01/28 18:32:28;;;;;;;9.60;4.00;;;;;;;4.61;100.00;102311.97;5063268;28;20502;-77
2024/01/28 18:34:58;;;;;;;10.67;4.13;;;;;;;3.06;100.00;102084.50;5080156;28;20441;-76
2024/01/28 18:37:34;;;;;;;10.47;4.60;;;;;;;3.13;100.00;102062.69;5080122;28;20607;-76
2024/01/28 18:40:09;;;;;;;7.97;3.87;;;;;;;3.35;100.00;102127.31;5066279;28;20476;-76
2024/01/28 18:42:46;;;;;;;8.17;3.90;;;;;;;2.87;100.00;102021.50;5068242;28;20523;-77
2024/01/28 18:45:20;;;;;;;9.17;3.57;;;;;;;2.37;100.00;101952.94;5064002;28;20584;-78
2024/01/28 18:47:56;;;;;;;8.23;4.27;;;;;;;4.36;100.00;102264.44;5082538;28;20913;-76
2024/01/28 18:50:40;;;;;;;9.13;3.67;;;;;;;3.22;100.00;102100.91;5061087;28;20816;-76
2024/01/28 18:53:14;;;;;;;8.33;3.50;;;;;;;4.07;100.00;102239.22;5066923;28;20461;-76
2024/01/28 18:55:50;;;;;;;8.20;4.03;;;;;;;4.99;100.00;102409.91;5061482;28;20453;-76
2024/01/28 18:58:21;;;;;;;9.60;4.20;;;;;;;2.49;100.00;102004.94;5079971;28;20477;-77
2024/01/28 19:00:52;;;;;;;8.17;4.17;;;;;;;3.17;100.00;102138.38;5068106;28;20809;-77
2024/01/28 19:03:23;;;;;;;7.90;3.73;;;;;;;2.87;100.00;102048.84;5064745;28;20434;-77
2024/01/28 19:06:05;;;;;;;9.80;4.30;;;;;;;2.36;100.00;101918.59;5081103;28;20527;-77
2024/01/28 19:08:38;;;;;;;6.30;3.90;;;;;;;5.05;100.00;102311.97;5080303;28;20453;-76
2024/01/28 19:11:04;;;;;;;9.97;4.20;;;;;;;3.28;100.00;102075.72;5063612;28;20436;-77
2024/01/28 19:13:33;;;;;;;12.37;4.10;;;;;;;3.13;100.00;102045.97;5080590;28;20771;-76
2024/01/28 19:16:06;;;;;;;7.77;4.03;;;;;;;3.82;100.00;102107.63;5066385;28;20487;-76
2024/01/28 19:18:47;;;;;;;7.10;3.50;;;;;;;2.49;100.00;101924.66;5063337;28;20465;-76
2024/01/28 19:21:25;;;;;;;10.30;4.43;;;;;;;4.23;100.00;102227.41;5082126;28;20436;-76
2024/01/28 19:24:04;;;;;;;;;;;;;;;;;;;;;
2024/01/28 19:26:55;;;;;;;10.27;4.10;;;;;;;3.12;100.00;102038.94;5063781;28;20429;-76
2024/01/28 19:29:25;;;;;;;8.27;4.50;;;;;;;3.59;100.00;102063.53;5061493;28;20786;-75
2024/01/28 19:32:04;;;;;;;;;;;;;;;;;;;;;
2024/01/28 19:34:35;;;;;;;8.90;4.23;;;;;;;3.21;100.00;101942.78;5066284;28;20459;-76
2024/01/28 19:37:03;;;;;;;10.87;4.53;;;;;;;2.32;100.00;101776.84;5070262;28;20551;-76
2024/01/28 19:39:42;;;;;;;12.83;4.73;;;;;;;2.03;100.00;101738.47;5084097;28;20487;-77
2024/01/28 19:42:12;;;;;;;8.60;4.20;;;;;;;3.36;100.00;101930.94;5065487;28;20498;-76
2024/01/28 19:44:48;;;;;;;9.00;3.97;;;;;;;4.40;100.00;102123.25;5085141;28;20524;-76
2024/01/28 19:47:22;;;;;;;8.37;4.20;;;;;;;1.49;100.00;101656.38;5072565;28;20960;-76
2024/01/28 19:49:55;;;;;;;9.00;4.20;;;;;;;2.69;100.00;101778.22;5069142;28;20943;-76
2024/01/28 19:53:07;;;;;;;8.03;3.70;;;;;;;3.05;100.00;101829.19;5069659;28;21005;-76
2024/01/28 19:55:40;;;;;;;7.50;3.40;;;;;;;2.40;100.00;101769.13;5068314;28;20456;-76
2024/01/28 19:58:28;;;;;;;8.50;3.70;;;;;;;2.48;100.00;101748.16;5068098;28;21020;-76
2024/01/28 20:01:02;;;;;;;9.47;4.50;;;;;;;3.10;100.00;101836.78;5066532;28;20430;-76
2024/01/28 20:03:39;;;;;;;9.10;4.37;;;;;;;2.96;100.00;101816.69;5081465;28;20438;-77
2024/01/28 20:06:12;;;;;;;7.80;4.00;;;;;;;2.44;100.00;101736.97;5070337;28;20445;-76
2024/01/28 20:08:50;;;;;;;7.80;3.80;;;;;;;2.96;100.00;101816.69;5067379;28;20909;-76
2024/01/28 20:11:24;;;;;;;7.93;3.70;;;;;;;2.39;100.00;101738.31;5083385;28;20454;-76
2024/01/28 20:13:54;;;;;;;9.13;4.10;;;;;;;3.75;100.00;101919.81;5069361;28;20442;-78
2024/01/28 20:16:33;;;;;;;11.13;3.97;;;;;;;2.49;100.00;101728.69;5088911;28;20445;-78
2024/01/28 20:19:17;;;;;;;7.70;3.53;;;;;;;1.51;100.00;101567.19;5083088;28;20477;-78
2024/01/28 20:21:50;;;;;;;8.10;4.20;;;;;;;2.62;100.00;101784.13;5071196;28;20782;-77
2024/01/28 20:24:28;;;;;;;9.20;3.93;;;;;;;3.95;100.00;101995.97;5083300;28;20452;-77
2024/01/28 20:26:58;;;;;;;8.83;4.13;;;;;;;1.65;100.00;101621.63;5067757;28;20542;-76
2024/01/28 20:29:29;;;;;;;8.60;3.80;;;;;;;1.43;100.00;101627.78;5063569;28;20992;-79
2024/01/28 20:32:11;;;;;;;8.37;3.77;;;;;;;3.46;100.00;101932.81;5065320;28;20437;-77
2024/01/28 20:34:48;;;;;;;11.50;4.40;;;;;;;3.84;100.00;101996.84;5061146;28;20426;-76
2024/01/28 20:37:26;;;;;;;10.53;4.27;;;;;;;3.07;100.00;101818.47;5067358;28;20468;-76
2024/01/28 20:40:08;;;;;;;10.10;4.17;;;;;;;1.73;100.00;101630.63;5065574;28;20482;-76
2024/01/28 20:42:53;;;;;;;9.50;4.43;;;;;;;3.19;100.00;101869.63;5069190;28;20439;-76
2024/01/28 20:45:32;;;;;;;8.20;3.93;;;;;;;3.04;100.00;101842.53;5065519;28;20433;-76
2024/01/28 20:48:13;;;;;;;8.23;4.00;;;;;;;2.96;100.00;101814.03;5063344;28;20563;-76
2024/01/28 20:51:10;;;;;;;;;;;;;;;;;;;;;
2024/01/28 20:53:46;;;;;;;12.40;3.60;;;;;;;1.75;100.00;101659.59;5068843;28;20445;-76
2024/01/28 20:59:54;;;;;;;9.63;3.90;;;;;;;3.01;100.00;101800.38;5096903;27;20555;-75
2024/01/28 21:02:24;;;;;;;7.67;4.50;;;;;;;1.56;100.00;101576.44;5079411;28;21080;-75
2024/01/28 21:04:54;;;;;;;9.63;4.37;;;;;;;4.43;100.00;102038.00;5082758;28;20444;-75
2024/01/28 21:07:30;;;;;;;8.50;4.40;;;;;;;2.56;100.00;101789.94;5077871;28;20555;-75
2024/01/28 21:10:04;;;;;;;10.97;4.07;;;;;;;3.23;100.00;101866.59;5077620;28;20468;-75
2024/01/28 21:12:30;;;;;;;7.43;3.90;;;;;;;3.61;100.00;101923.59;5078043;28;20436;-75
2024/01/28 21:15:03;;;;;;;8.13;4.60;;;;;;;2.78;100.00;101796.97;5082842;28;20537;-75
2024/01/28 21:17:43;;;;;;;;;;;;;;;;;;;;;
2024/01/28 21:20:53;;;;;;;6.90;3.53;;;;;;;1.87;100.00;101632.19;5140301;27;20591;-74
2024/01/28 21:23:22;;;;;;;8.37;3.77;;;;;;;2.65;100.00;101721.16;5125639;27;20454;-76
2024/01/28 21:25:59;;;;;;;10.97;4.60;;;;;;;2.12;100.00;101601.09;5121328;27;20538;-76
2024/01/28 21:28:32;;;;;;;6.37;3.07;;;;;;;1.61;100.00;101557.56;5111405;27;20506;-76
2024/01/28 21:31:04;;;;;;;13.53;3.90;;;;;;;3.37;100.00;101791.22;5109019;28;20987;-76
2024/01/28 21:33:34;;;;;;;7.37;3.53;;;;;;;3.23;100.00;101741.16;5107998;28;20784;-76
2024/01/28 21:36:07;;;;;;;9.70;4.00;;;;;;;3.07;100.00;101712.44;5105424;28;20446;-76
2024/01/28 21:38:38;;;;;;;9.70;4.17;;;;;;;2.98;100.00;101731.72;5109194;28;20459;-76
2024/01/28 21:41:11;;;;;;;9.40;3.97;;;;;;;3.60;100.00;101814.00;5109805;28;20447;-76
2024/01/28 21:43:46;;;;;;;6.37;3.37;;;;;;;3.19;100.00;101777.69;5106543;28;20443;-76
2024/01/28 21:46:19;;;;;;;9.20;3.60;;;;;;;2.91;100.00;101710.22;5092645;28;20943;-76
2024/01/28 21:48:50;;;;;;;6.80;3.50;;;;;;;3.22;100.00;101745.59;5088930;28;20467;-76
2024/01/28 21:51:24;;;;;;;9.40;4.20;;;;;;;3.58;100.00;101868.16;5107960;28;20444;-76
2024/01/28 21:53:59;;;;;;;6.63;3.50;;;;;;;4.04;100.00;101939.44;5107327;28;20431;-76
2024/01/28 21:56:29;;;;;;;7.40;3.37;;;;;;;3.14;100.00;101790.47;5107448;28;20431;-77
2024/01/28 21:59:02;;;;;;;6.07;3.37;;;;;;;3.08;100.00;101785.69;5086543;28;20463;-76
2024/01/28 22:01:34;;;;;;;8.80;3.77;;;;;;;3.30;100.00;101787.41;5107088;28;20439;-76
2024/01/28 22:04:04;;;;;;;6.40;2.77;;;;;;;3.10;100.00;101802.31;5107329;28;20953;-76
2024/01/28 22:06:34;;;;;;;9.07;3.63;;;;;;;2.53;100.00;101702.78;5091444;28;20443;-76
2024/01/28 22:09:05;;;;;;;6.97;3.87;;;;;;;2.32;100.00;101692.97;5104579;28;20475;-76
2024/01/28 22:11:33;;;;;;;7.67;3.33;;;;;;;4.23;100.00;101967.94;5086645;28;20435;-77
2024/01/28 22:14:04;;;;;;;7.23;2.90;;;;;;;3.78;100.00;101872.63;5105946;28;20447;-76
2024/01/28 22:16:39;;;;;;;6.77;3.47;;;;;;;2.54;100.00;101717.69;5104652;28;20439;-77
2024/01/28 22:19:09;;;;;;;10.13;3.30;;;;;;;2.02;100.00;101641.50;5108816;28;20464;-77
2024/01/28 22:21:42;;;;;;;11.50;4.50;;;;;;;2.97;100.00;101769.81;5109538;28;20442;-76
2024/01/28 22:24:12;;;;;;;7.33;3.70;;;;;;;2.90;100.00;101810.06;5106269;28;20527;-76
2024/01/28 22:26:43;;;;;;;5.83;3.10;;;;;;;1.67;100.00;101617.06;5101806;28;20471;-77
2024/01/28 22:29:19;;;;;;;8.13;3.63;;;;;;;3.92;100.00;101911.28;5105392;28;20483;-77
2024/01/28 22:31:47;;;;;;;5.97;2.87;;;;;;;3.57;100.00;101880.56;5088935;28;20443;-76
2024/01/28 22:34:20;;;;;;;7.03;3.40;;;;;;;1.64;100.00;101590.84;5093441;28;20435;-76
2024/01/28 22:36:55;;;;;;;5.87;3.10;;;;;;;3.61;100.00;101874.03;5092799;28;20478;-76
2024/01/28 22:39:25;;;;;;;5.87;2.77;;;;;;;2.13;100.00;101626.59;5092047;28;20489;-76
2024/01/28 22:41:58;;;;;;;8.10;2.70;;;;;;;4.80;100.00;102065.91;5072906;28;20444;-76
2024/01/28 22:44:26;;;;;;;6.77;2.93;;;;;;;2.17;100.00;101670.34;5093136;28;20503;-77
2024/01/28 22:46:53;;;;;;;7.80;2.90;;;;;;;2.42;100.00;101659.47;5074400;28;20510;-77
2024/01/28 22:49:24;;;;;;;7.77;2.73;;;;;;;3.24;100.00;101779.94;5093449;28;20468;-76
2024/01/28 22:51:56;;;;;;;6.20;2.87;;;;;;;2.41;100.00;101672.84;5091338;28;20911;-76
2024/01/28 22:54:21;;;;;;;8.07;2.53;;;;;;;3.90;100.00;101891.97;5068514;28;20445;-76
2024/01/28 22:56:51;;;;;;;6.67;2.77;;;;;;;2.86;100.00;101744.19;5088229;28;20436;-76
2024/01/28 22:59:24;;;;;;;7.27;3.17;;;;;;;2.61;100.00;101677.34;5087222;28;20539;-76
2024/01/28 23:01:57;;;;;;;7.63;2.40;;;;;;;2.46;100.00;101697.97;5087781;28;20451;-76
2024/01/28 23:04:25;;;;;;;5.03;2.40;;;;;;;3.85;100.00;101886.22;5084381;28;20439;-76
2024/01/28 23:06:53;;;;;;;5.70;2.30;;;;;;;3.34;100.00;101807.38;5086949;28;20540;-76
2024/01/28 23:09:23;;;;;;;7.43;2.43;;;;;;;2.71;100.00;101720.63;5087011;28;20963;-77
2024/01/28 23:11:51;;;;;;;6.47;2.63;;;;;;;3.19;100.00;101772.38;5088143;28;20497;-76
2024/01/28 23:14:21;;;;;;;7.00;2.80;;;;;;;3.58;100.00;101873.44;5087897;28;20544;-76
2024/01/28 23:16:49;;;;;;;6.37;2.40;;;;;;;3.30;100.00;101788.25;5069590;28;20441;-76
2024/01/28 23:19:14;;;;;;;8.70;2.80;;;;;;;2.49;100.00;101620.94;5087415;28;20535;-77
2024/01/28 23:21:42;;;;;;;5.60;2.73;;;;;;;2.79;100.00;101708.59;5090469;28;20919;-76
2024/01/28 23:24:12;;;;;;;8.00;2.47;;;;;;;4.07;100.00;101907.31;5072715;28;20798;-76
2024/01/28 23:26:43;;;;;;;5.60;2.50;;;;;;;3.12;100.00;101763.25;5068453;28;20443;-76
2024/01/28 23:29:09;;;;;;;5.90;2.57;;;;;;;2.85;100.00;101703.59;5086440;28;20476;-77
2024/01/28 23:31:34;;;;;;;5.07;2.80;;;;;;;4.16;100.00;101937.56;5088182;28;20501;-76
2024/01/28 23:34:05;;;;;;;6.13;2.77;;;;;;;4.27;100.00;101953.44;5087748;28;20185;-76
2024/01/28 23:36:35;;;;;;;6.53;2.93;;;;;;;2.60;100.00;101669.50;5086104;28;20220;-77
2024/01/28 23:39:01;;;;;;;5.67;2.63;;;;;;;3.57;100.00;101837.28;5085593;28;20495;-76
2024/01/28 23:41:29;;;;;;;7.33;2.53;;;;;;;4.16;100.00;101920.78;5086702;28;20472;-76
2024/01/28 23:43:59;;;;;;;5.53;2.40;;;;;;;4.11;100.00;101921.19;5086556;28;20571;-77
2024/01/28 23:46:29;;;;;;;5.83;2.67;;;;;;;4.50;100.00;102001.09;5091068;28;20472;-76
2024/01/28 23:48:54;;;;;;;6.03;2.43;;;;;;;2.56;100.00;101713.97;5091148;28;20495;-76
2024/01/28 23:51:20;;;;;;;6.30;2.70;;;;;;;2.44;100.00;101652.25;5090272;28;20924;-76
2024/01/28 23:53:48;;;;;;;7.20;2.47;;;;;;;4.28;100.00;101979.03;5086778;28;20182;-76
2024/01/28 23:56:15;;;;;;;5.73;2.30;;;;;;;2.70;100.00;101695.13;5088554;28;20650;-76
2024/01/28 23:58:47;;;;;;;7.07;2.60;;;;;;;2.20;100.00;101623.34;5085980;28;20459;-76
